Time;durP1;ratioP1;P1;durP2;ratioP2;P2;SDS_P1;SDS_P2;PMS_P1;PMS_P2;Temp;Humidity;BMP_temperature;BMP_pressure;BME280_temperature;BME280_humidity;BME280_pressure;Samples;Min_cycle;Max_cycle;Signal;HPM_P1;HPM_P2
2023/07/19 00:00:06;;;;;;;4.30;1.70;;;;;;;16.60;63.94;100683.31;107019;1257;61620;-72
2023/07/19 00:02:33;;;;;;;3.70;1.60;;;;;;;16.59;63.84;100679.65;106833;1258;76149;-72
2023/07/19 00:05:01;;;;;;;3.90;1.60;;;;;;;16.60;63.82;100682.29;106858;1256;69919;-72
2023/07/19 00:07:28;;;;;;;3.80;1.50;;;;;;;16.60;63.94;100683.69;106606;1256;72756;-72
2023/07/19 00:09:55;;;;;;;4.30;1.40;;;;;;;16.61;63.77;100681.80;106839;1255;62046;-74
2023/07/19 00:12:22;;;;;;;4.90;1.60;;;;;;;16.61;63.86;100677.95;106632;1260;61247;-73
2023/07/19 00:14:49;;;;;;;3.80;1.80;;;;;;;16.63;63.80;100677.27;106595;1257;73546;-74
2023/07/19 00:17:16;;;;;;;5.80;1.80;;;;;;;16.65;63.66;100674.21;107091;1257;71403;-74
2023/07/19 00:19:43;;;;;;;6.10;1.70;;;;;;;16.65;63.60;100674.02;106965;1256;73624;-74
2023/07/19 00:22:10;;;;;;;4.70;1.60;;;;;;;16.67;63.62;100675.89;106773;1256;62046;-74
2023/07/19 00:24:37;;;;;;;3.20;1.70;;;;;;;16.68;63.60;100674.48;106682;1257;61308;-73
2023/07/19 00:27:03;;;;;;;4.20;1.50;;;;;;;16.68;63.72;100670.81;106967;1256;75275;-73
2023/07/19 00:29:31;;;;;;;5.90;1.70;;;;;;;16.70;63.81;100665.83;106950;1255;71280;-73
2023/07/19 00:31:58;;;;;;;5.10;1.90;;;;;;;16.72;63.74;100663.25;106676;1256;72414;-73
2023/07/19 00:34:24;;;;;;;4.50;1.60;;;;;;;16.73;63.91;100658.31;106596;1256;62057;-73
2023/07/19 00:36:51;;;;;;;4.10;1.60;;;;;;;16.74;63.94;100656.77;107121;1256;61252;-74
2023/07/19 00:39:18;;;;;;;6.00;1.50;;;;;;;16.74;64.09;100651.00;106780;1256;73778;-73
2023/07/19 00:41:45;;;;;;;5.30;1.90;;;;;;;16.75;64.14;100643.25;106921;1256;69569;-73
2023/07/19 00:44:12;;;;;;;3.60;1.40;;;;;;;16.74;64.14;100636.48;106427;1256;72003;-73
2023/07/19 00:46:39;;;;;;;3.70;1.40;;;;;;;16.75;64.30;100637.73;106493;1262;61691;-72
2023/07/19 00:49:06;;;;;;;5.20;1.70;;;;;;;16.75;64.23;100631.92;106742;1257;61363;-73
2023/07/19 00:51:33;;;;;;;5.00;1.60;;;;;;;16.75;64.46;100625.48;106701;1258;73677;-73
2023/07/19 00:54:00;;;;;;;3.40;1.60;;;;;;;16.73;64.61;100622.53;107069;1257;70293;-73
2023/07/19 00:56:28;;;;;;;3.70;1.50;;;;;;;16.72;64.69;100623.77;106595;1256;71689;-73
2023/07/19 00:58:54;;;;;;;3.60;1.80;;;;;;;16.70;64.78;100623.33;107015;1256;62077;-73
2023/07/19 01:01:22;;;;;;;11.70;2.00;;;;;;;16.66;65.04;100620.10;106931;1255;61267;-73
2023/07/19 01:03:49;;;;;;;5.30;1.80;;;;;;;16.62;65.33;100621.41;106935;1256;74792;-74
2023/07/19 01:06:18;;;;;;;4.70;1.70;;;;;;;16.59;65.40;100619.91;106574;1258;70751;-73
2023/07/19 01:08:48;;;;;;;5.50;2.00;;;;;;;16.55;65.57;100612.65;106653;1257;72596;-72
2023/07/19 01:11:15;;;;;;;3.70;1.70;;;;;;;16.53;65.85;100609.15;106998;1256;61295;-72
2023/07/19 01:13:53;;;;;;;3.40;1.70;;;;;;;16.50;66.02;100609.70;106727;1258;61254;-72
2023/07/19 01:16:20;;;;;;;4.90;1.80;;;;;;;16.46;66.42;100608.29;106708;1256;73451;-72
2023/07/19 01:18:48;;;;;;;4.70;1.70;;;;;;;16.44;66.55;100602.76;106801;1256;69925;-73
2023/07/19 01:21:14;;;;;;;4.70;1.90;;;;;;;16.42;66.67;100601.40;106519;1256;71265;-73
2023/07/19 01:23:50;;;;;;;5.40;1.90;;;;;;;16.40;66.84;100597.94;106655;1256;61219;-74
2023/07/19 01:26:18;;;;;;;4.70;1.50;;;;;;;16.37;66.80;100597.60;106775;1256;61126;-73
2023/07/19 01:28:45;;;;;;;5.80;1.60;;;;;;;16.34;66.78;100594.70;107026;1256;74592;-73
2023/07/19 01:31:14;;;;;;;5.10;1.90;;;;;;;16.31;67.09;100591.71;107660;1256;70195;-74
2023/07/19 01:33:41;;;;;;;3.60;1.60;;;;;;;16.30;67.50;100597.34;107719;1256;71722;-73
2023/07/19 01:36:08;;;;;;;3.40;1.60;;;;;;;16.28;67.93;100599.63;107900;1256;61469;-73
2023/07/19 01:38:35;;;;;;;5.50;1.70;;;;;;;16.26;68.19;100599.73;106895;1256;266446;-74
2023/07/19 01:41:02;;;;;;;5.00;1.80;;;;;;;16.23;68.37;100603.98;106836;1256;73682;-73
2023/07/19 01:43:29;;;;;;;5.70;1.70;;;;;;;16.22;68.73;100602.95;106977;1256;69777;-73
2023/07/19 01:45:58;;;;;;;5.60;1.80;;;;;;;16.20;68.93;100600.58;106964;1256;71579;-73
2023/07/19 01:48:25;;;;;;;3.80;1.70;;;;;;;16.18;69.18;100601.59;106852;1256;61699;-74
2023/07/19 01:50:51;;;;;;;3.80;1.80;;;;;;;16.16;69.45;100595.25;106699;1257;61832;-73
2023/07/19 01:53:18;;;;;;;4.30;1.70;;;;;;;16.14;69.46;100581.59;106837;1256;73626;-74
2023/07/19 01:55:45;;;;;;;3.70;1.80;;;;;;;16.11;69.63;100573.73;106857;1256;71145;-74
2023/07/19 01:58:12;;;;;;;4.50;1.80;;;;;;;16.10;69.70;100577.28;106821;1256;71475;-73
2023/07/19 02:00:39;;;;;;;4.80;1.70;;;;;;;16.08;69.56;100576.42;106767;1259;61323;-74
2023/07/19 02:03:06;;;;;;;6.90;1.90;;;;;;;16.09;69.56;100580.68;107054;1256;61206;-73
2023/07/19 02:05:35;;;;;;;4.30;1.90;;;;;;;16.09;69.56;100579.19;106897;1256;74999;-74
2023/07/19 02:08:03;;;;;;;4.40;1.70;;;;;;;16.09;69.41;100576.02;106826;1256;70157;-73
2023/07/19 02:10:30;;;;;;;5.00;1.90;;;;;;;16.07;69.53;100580.67;106820;1256;70683;-74
2023/07/19 02:12:57;;;;;;;4.20;1.60;;;;;;;16.05;69.50;100579.57;106770;1256;61212;-73
2023/07/19 02:15:23;;;;;;;4.10;1.70;;;;;;;16.04;69.63;100583.16;106581;1258;62115;-73
2023/07/19 02:17:50;;;;;;;4.40;1.80;;;;;;;16.01;69.79;100580.48;106698;1255;74693;-73
2023/07/19 02:20:19;;;;;;;5.30;1.60;;;;;;;15.98;69.93;100575.29;107191;1256;69670;-73
2023/07/19 02:22:46;;;;;;;5.40;1.70;;;;;;;15.94;70.40;100577.90;106748;1256;70538;-75
2023/07/19 02:25:13;;;;;;;4.20;1.90;;;;;;;15.90;70.69;100577.05;106708;1256;61231;-74
2023/07/19 02:27:40;;;;;;;5.90;2.00;;;;;;;15.86;71.20;100565.05;106939;1255;61254;-72
2023/07/19 02:30:08;;;;;;;6.00;1.80;;;;;;;15.83;71.76;100562.84;106629;1256;73777;-72
2023/07/19 02:32:35;;;;;;;3.00;1.90;;;;;;;15.80;72.15;100567.56;106801;1256;70528;-72
2023/07/19 02:35:02;;;;;;;4.00;1.80;;;;;;;15.77;72.71;100560.16;106749;1256;71540;-72
2023/07/19 02:37:29;;;;;;;6.90;1.90;;;;;;;15.74;73.07;100557.92;106815;1257;62058;-73
2023/07/19 02:39:56;;;;;;;5.80;2.00;;;;;;;15.70;73.51;100557.31;107031;1256;61244;-73
2023/07/19 02:42:23;;;;;;;3.80;1.70;;;;;;;15.68;73.65;100556.88;106797;1260;74775;-75
2023/07/19 02:44:50;;;;;;;3.40;1.60;;;;;;;15.65;73.88;100556.14;106941;1256;70653;-73
2023/07/19 02:47:17;;;;;;;3.90;1.90;;;;;;;15.63;74.19;100551.17;107223;1256;72786;-72
2023/07/19 02:49:44;;;;;;;4.50;1.90;;;;;;;15.60;74.41;100552.68;107367;1258;62645;-72
2023/07/19 02:52:11;;;;;;;4.10;1.90;;;;;;;15.59;74.57;100554.98;107452;1256;61106;-72
2023/07/19 02:54:38;;;;;;;3.40;1.70;;;;;;;15.57;74.94;100560.34;107360;1259;76002;-73
2023/07/19 02:57:05;;;;;;;4.10;1.90;;;;;;;15.55;75.22;100562.28;107587;1256;70022;-73
2023/07/19 02:59:31;;;;;;;3.50;1.60;;;;;;;15.51;75.33;100561.30;107174;1256;72832;-72
2023/07/19 03:01:58;;;;;;;5.50;2.00;;;;;;;15.50;75.64;100559.48;107121;1255;61249;-73
2023/07/19 03:04:25;;;;;;;4.80;2.10;;;;;;;15.50;75.81;100557.73;107131;1256;61365;-74
2023/07/19 03:06:52;;;;;;;4.70;1.60;;;;;;;15.49;75.85;100553.00;107374;1256;74696;-72
2023/07/19 03:09:19;;;;;;;4.10;2.10;;;;;;;15.49;75.99;100550.56;107334;1256;70033;-72
2023/07/19 03:11:46;;;;;;;4.70;2.00;;;;;;;15.48;76.31;100544.94;107487;1256;71544;-71
2023/07/19 03:14:13;;;;;;;4.90;2.10;;;;;;;15.47;76.51;100538.48;106921;1260;62203;-72
2023/07/19 03:16:41;;;;;;;4.70;1.90;;;;;;;15.47;76.57;100536.35;107526;1256;61223;-73
2023/07/19 03:19:08;;;;;;;4.90;2.00;;;;;;;15.46;76.94;100536.09;107017;1257;74428;-72
2023/07/19 03:21:39;;;;;;;3.70;2.00;;;;;;;15.45;76.99;100534.75;107397;1256;71856;-72
2023/07/19 03:24:08;;;;;;;4.20;2.20;;;;;;;15.43;77.04;100533.52;107277;1256;72671;-73
2023/07/19 03:26:35;;;;;;;6.00;2.20;;;;;;;15.42;76.93;100536.48;107317;1257;61746;-75
2023/07/19 03:29:02;;;;;;;4.00;2.20;;;;;;;15.42;77.07;100539.20;107325;1256;61284;-73
2023/07/19 03:31:29;;;;;;;5.70;2.50;;;;;;;15.41;77.36;100543.65;107671;1256;74562;-73
2023/07/19 03:33:56;;;;;;;5.40;2.00;;;;;;;15.37;77.60;100545.92;107364;1256;71644;-72
2023/07/19 03:36:23;;;;;;;6.20;2.20;;;;;;;15.35;77.87;100546.41;107012;1256;74263;-72
2023/07/19 03:38:51;;;;;;;4.60;2.00;;;;;;;15.31;78.12;100541.99;107154;1257;61986;-72
2023/07/19 03:41:17;;;;;;;5.40;2.20;;;;;;;15.27;78.26;100537.64;107447;1256;61392;-72
2023/07/19 03:43:45;;;;;;;5.00;2.20;;;;;;;15.26;78.14;100535.83;107566;1256;73468;-73
2023/07/19 03:46:12;;;;;;;4.40;2.00;;;;;;;15.27;78.25;100535.46;107411;1256;70026;-72
2023/07/19 03:48:39;;;;;;;5.40;2.20;;;;;;;15.26;78.07;100533.91;107363;1256;71256;-72
2023/07/19 03:51:06;;;;;;;5.60;2.20;;;;;;;15.27;78.19;100530.20;107118;1257;62060;-73
2023/07/19 03:53:34;;;;;;;6.30;2.20;;;;;;;15.29;77.99;100529.42;107549;1256;59292;-73
2023/07/19 03:56:00;;;;;;;5.00;2.20;;;;;;;15.32;78.00;100530.38;107246;1259;73558;-72
2023/07/19 03:58:28;;;;;;;6.40;2.10;;;;;;;15.35;77.89;100529.84;107051;1256;70296;-73
2023/07/19 04:00:57;;;;;;;5.90;2.20;;;;;;;15.36;77.50;100531.60;107353;1256;71457;-73
2023/07/19 04:03:25;;;;;;;5.40;2.20;;;;;;;15.38;77.14;100531.23;107555;1259;61219;-72
2023/07/19 04:05:54;;;;;;;4.40;2.20;;;;;;;15.40;76.86;100531.77;107306;1256;59831;-72
2023/07/19 04:08:21;;;;;;;5.20;2.20;;;;;;;15.42;76.67;100525.26;107256;1256;74684;-72
2023/07/19 04:10:47;;;;;;;6.10;2.40;;;;;;;15.45;76.71;100525.09;107263;1255;70326;-72
2023/07/19 04:13:14;;;;;;;5.90;2.20;;;;;;;15.49;76.67;100526.84;107448;1256;71697;-72
2023/07/19 04:15:41;;;;;;;4.20;1.90;;;;;;;15.55;76.58;100518.59;107354;1256;61316;-72
2023/07/19 04:18:08;;;;;;;6.20;2.20;;;;;;;15.61;76.31;100519.72;107326;1259;61238;-72
2023/07/19 04:20:36;;;;;;;3.80;2.10;;;;;;;15.66;76.16;100519.11;107362;1256;74722;-73
2023/07/19 04:23:03;;;;;;;7.90;2.10;;;;;;;15.73;75.88;100521.50;107282;1256;70842;-73
2023/07/19 04:25:31;;;;;;;4.20;2.10;;;;;;;15.78;75.67;100515.98;107713;1256;72716;-73
2023/07/19 04:27:58;;;;;;;5.70;2.20;;;;;;;15.83;75.52;100514.70;107282;1256;61740;-73
2023/07/19 04:30:25;;;;;;;4.00;2.10;;;;;;;15.90;75.60;100514.13;107159;1258;61137;-73
2023/07/19 04:32:54;;;;;;;5.30;2.40;;;;;;;15.97;75.24;100514.77;107180;1256;74726;-73
2023/07/19 04:35:22;;;;;;;4.90;2.00;;;;;;;16.04;75.01;100517.95;107504;1256;69945;-74
2023/07/19 04:37:52;;;;;;;4.10;1.90;;;;;;;16.12;74.70;100511.73;107114;1259;71410;-73
2023/07/19 04:40:19;;;;;;;4.00;2.10;;;;;;;16.18;74.19;100508.81;107038;1256;61346;-73
2023/07/19 04:42:46;;;;;;;5.10;2.00;;;;;;;16.22;73.95;100506.94;107335;1256;59846;-73
2023/07/19 04:45:13;;;;;;;2.70;1.70;;;;;;;16.26;73.64;100511.64;107521;1255;74739;-75
2023/07/19 04:47:40;;;;;;;3.80;1.80;;;;;;;16.29;73.38;100514.98;107708;1256;70174;-75
2023/07/19 04:50:08;;;;;;;5.10;2.00;;;;;;;16.30;73.30;100515.41;107272;1256;72676;-74
2023/07/19 04:52:35;;;;;;;5.70;1.90;;;;;;;16.31;73.23;100512.39;107420;1256;62579;-73
2023/07/19 04:55:03;;;;;;;3.90;2.10;;;;;;;16.34;73.16;100510.52;107098;1256;59236;-73
2023/07/19 04:57:30;;;;;;;5.80;1.80;;;;;;;16.38;73.07;100508.05;107196;1257;74689;-73
2023/07/19 04:59:57;;;;;;;3.90;1.70;;;;;;;16.45;73.25;100506.67;107061;1256;69926;-73
2023/07/19 05:02:24;;;;;;;4.10;1.90;;;;;;;16.53;73.04;100508.70;107021;1256;71545;-73
2023/07/19 05:04:52;;;;;;;3.50;1.90;;;;;;;16.60;72.77;100502.89;107192;1256;61177;-73
2023/07/19 05:07:20;;;;;;;5.50;1.90;;;;;;;16.67;72.35;100502.98;107238;1256;59820;-76
2023/07/19 05:09:47;;;;;;;5.30;2.00;;;;;;;16.72;72.15;100506.94;107267;1256;73530;-76
2023/07/19 05:12:14;;;;;;;3.80;1.70;;;;;;;16.79;72.11;100509.20;107636;1256;69032;-76
2023/07/19 05:14:41;;;;;;;5.70;2.00;;;;;;;16.87;71.92;100509.89;107061;1256;71525;-77
2023/07/19 05:17:08;;;;;;;6.00;2.10;;;;;;;16.95;71.32;100513.73;107363;1256;61753;-76
2023/07/19 05:19:35;;;;;;;3.40;1.80;;;;;;;17.02;71.13;100510.52;106875;1256;60456;-74
2023/07/19 05:22:03;;;;;;;3.20;1.70;;;;;;;17.10;70.96;100510.91;107043;1257;73130;-76
2023/07/19 05:24:30;;;;;;;6.10;2.40;;;;;;;17.20;70.71;100514.20;107419;1256;71320;-75
2023/07/19 05:26:57;;;;;;;4.40;2.00;;;;;;;17.29;70.38;100513.03;107257;1256;73272;-73
2023/07/19 05:29:24;;;;;;;4.10;2.00;;;;;;;17.38;69.69;100507.28;107370;1256;62482;-78
2023/07/19 05:31:51;;;;;;;4.60;2.10;;;;;;;17.45;69.29;100503.12;106811;1256;61270;-78
2023/07/19 05:34:17;;;;;;;6.30;2.10;;;;;;;17.52;68.90;100502.48;107085;1256;75197;-77
2023/07/19 05:36:44;;;;;;;4.90;2.00;;;;;;;17.63;68.86;100501.48;107272;1256;71529;-77
2023/07/19 05:39:11;;;;;;;4.50;1.80;;;;;;;17.76;68.54;100497.64;107131;1257;72855;-73
2023/07/19 05:41:39;;;;;;;3.50;1.90;;;;;;;17.89;68.24;100496.95;107475;1256;62513;-76
2023/07/19 05:44:06;;;;;;;5.60;2.20;;;;;;;18.01;67.45;100494.31;107021;1256;59534;-77
2023/07/19 05:46:38;;;;;;;3.30;1.90;;;;;;;18.09;66.52;100495.01;106679;1257;74614;-77
2023/07/19 05:49:05;;;;;;;5.80;1.70;;;;;;;18.15;65.81;100494.52;106740;1258;69574;-78
2023/07/19 05:51:32;;;;;;;6.10;2.10;;;;;;;18.18;65.69;100495.14;107133;1255;71118;-73
2023/07/19 05:53:59;;;;;;;4.60;2.00;;;;;;;18.21;65.54;100491.98;107084;1256;62070;-77
2023/07/19 05:56:26;;;;;;;5.70;2.10;;;;;;;18.23;65.39;100489.39;106890;1256;59573;-77
2023/07/19 05:58:54;;;;;;;6.70;2.30;;;;;;;18.22;65.14;100487.06;107419;1256;73368;-75
2023/07/19 06:01:24;;;;;;;5.20;2.00;;;;;;;18.23;65.22;100486.59;107254;1256;71225;-76
2023/07/19 06:03:56;;;;;;;4.40;2.10;;;;;;;18.25;64.97;100490.39;106821;1255;72585;-74
2023/07/19 06:06:25;;;;;;;5.00;2.60;;;;;;;18.31;64.85;100491.78;106740;1259;61211;-76
2023/07/19 06:08:52;;;;;;;4.60;1.80;;;;;;;18.44;65.04;100493.48;106770;1255;60800;-73
2023/07/19 06:11:19;;;;;;;5.00;2.20;;;;;;;18.61;64.80;100490.62;106880;1256;74845;-74
2023/07/19 06:13:46;;;;;;;5.30;1.90;;;;;;;18.83;64.39;100491.95;106843;1256;71379;-75
2023/07/19 06:16:13;;;;;;;5.30;1.90;;;;;;;19.06;63.44;100493.44;106807;1256;71614;-75
2023/07/19 06:18:40;;;;;;;4.70;1.80;;;;;;;19.32;62.64;100496.29;107099;1256;62038;-75
2023/07/19 06:21:06;;;;;;;4.40;1.70;;;;;;;19.55;61.34;100492.13;107185;1256;60743;-75
2023/07/19 06:23:33;;;;;;;4.20;1.80;;;;;;;19.82;59.78;100491.14;107943;1257;74708;-72
2023/07/19 06:26:00;;;;;;;5.60;1.70;;;;;;;20.08;59.13;100493.40;106799;1256;69705;-75
2023/07/19 06:28:32;;;;;;;5.70;1.70;;;;;;;20.28;58.86;100486.17;108941;1256;71581;-76
2023/07/19 06:30:59;;;;;;;4.60;1.60;;;;;;;20.45;57.90;100490.92;108769;1256;60454;-76
2023/07/19 06:33:28;;;;;;;3.00;1.40;;;;;;;20.60;56.37;100498.89;108815;1256;60337;-76
2023/07/19 06:35:55;;;;;;;3.50;1.90;;;;;;;20.75;55.42;100502.73;108768;1256;73190;-75
2023/07/19 06:38:23;;;;;;;4.20;1.50;;;;;;;20.87;54.55;100502.14;108797;1256;70017;-76
2023/07/19 06:40:50;;;;;;;4.20;1.60;;;;;;;21.02;54.26;100497.49;108833;1256;71338;-76
2023/07/19 06:43:17;;;;;;;4.40;1.70;;;;;;;21.16;53.90;100495.80;107678;1256;61018;-73
2023/07/19 06:45:49;;;;;;;4.40;1.70;;;;;;;21.26;54.04;100492.64;106002;1256;60460;-72
2023/07/19 06:48:16;;;;;;;2.80;1.40;;;;;;;21.44;53.47;100492.23;106266;1256;74685;-74
2023/07/19 06:50:42;;;;;;;4.40;1.40;;;;;;;21.59;52.27;100489.97;106373;1256;71635;-75
2023/07/19 06:53:09;;;;;;;4.70;1.40;;;;;;;21.75;50.96;100491.98;106836;1256;72667;-75
2023/07/19 06:55:37;;;;;;;2.90;1.30;;;;;;;21.91;49.42;100495.38;106754;1256;61145;-73
2023/07/19 06:58:04;;;;;;;4.80;1.40;;;;;;;22.00;47.43;100494.23;106196;1256;61188;-74
2023/07/19 07:00:31;;;;;;;4.40;1.50;;;;;;;22.07;46.82;100495.70;106380;1262;73189;-75
2023/07/19 07:02:58;;;;;;;3.80;1.60;;;;;;;22.09;47.01;100492.25;106516;1259;69916;-74
2023/07/19 07:05:24;;;;;;;2.90;1.30;;;;;;;22.06;45.87;100489.67;106737;1256;75617;-73
2023/07/19 07:07:51;;;;;;;3.90;1.50;;;;;;;21.98;45.54;100494.02;106547;1256;61247;-73
2023/07/19 07:10:19;;;;;;;3.50;1.20;;;;;;;21.91;46.38;100495.74;106672;1257;61632;-74
2023/07/19 07:12:45;;;;;;;3.70;1.30;;;;;;;21.85;46.37;100494.57;106827;1256;74998;-73
2023/07/19 07:15:12;;;;;;;4.10;1.70;;;;;;;21.82;48.31;100500.64;106179;1264;70087;-75
2023/07/19 07:17:40;;;;;;;3.00;1.40;;;;;;;21.74;51.97;100493.27;106283;1259;72749;-72
2023/07/19 07:20:08;;;;;;;3.50;1.30;;;;;;;21.55;52.29;100499.52;106243;1256;61471;-73
2023/07/19 07:22:34;;;;;;;4.00;1.60;;;;;;;21.34;52.72;100500.72;106782;1257;61197;-74
2023/07/19 07:25:01;;;;;;;3.20;1.60;;;;;;;21.21;54.41;100499.73;106188;1256;74474;-74
2023/07/19 07:27:28;;;;;;;3.50;1.50;;;;;;;21.16;54.46;100503.13;106330;1256;71150;-73
2023/07/19 07:29:54;;;;;;;9.20;2.60;;;;;;;21.16;55.49;100505.29;106765;1256;71470;-76
2023/07/19 07:32:21;;;;;;;3.10;1.30;;;;;;;21.18;54.30;100504.29;106238;1262;61376;-75
2023/07/19 07:34:49;;;;;;;3.30;1.50;;;;;;;21.20;54.76;100501.29;108067;1256;61672;-75
2023/07/19 07:37:16;;;;;;;2.80;1.40;;;;;;;21.24;54.01;100499.90;106672;1256;73631;-74
2023/07/19 07:39:43;;;;;;;2.20;1.30;;;;;;;21.31;53.49;100501.21;106247;1256;71306;-72
2023/07/19 07:42:09;;;;;;;4.20;1.40;;;;;;;21.40;53.28;100500.85;106402;1256;71306;-72
2023/07/19 07:44:36;;;;;;;3.00;1.50;;;;;;;21.50;52.45;100500.17;106460;1256;61487;-74
2023/07/19 07:47:03;;;;;;;3.40;1.30;;;;;;;21.61;52.05;100495.61;106446;1256;61253;-74
2023/07/19 07:49:31;;;;;;;3.80;1.30;;;;;;;21.74;49.85;100487.91;106828;1256;73027;-73
2023/07/19 07:51:58;;;;;;;4.00;1.50;;;;;;;21.93;50.88;100492.27;106461;1256;71308;-72
2023/07/19 07:54:25;;;;;;;3.50;1.40;;;;;;;22.06;49.90;100492.55;106206;1256;71446;-74
2023/07/19 07:56:52;;;;;;;4.30;1.40;;;;;;;22.20;49.83;100489.38;106655;1257;61200;-74
2023/07/19 07:59:19;;;;;;;3.60;1.40;;;;;;;22.35;48.55;100486.81;106609;1260;61261;-74
2023/07/19 08:01:46;;;;;;;2.80;1.30;;;;;;;22.41;46.50;100489.46;106163;1256;73630;-73
2023/07/19 08:04:13;;;;;;;3.20;1.30;;;;;;;22.41;46.19;100486.23;106988;1256;71153;-75
2023/07/19 08:06:40;;;;;;;3.20;1.20;;;;;;;22.40;45.27;100489.30;106484;1257;72850;-76
2023/07/19 08:09:07;;;;;;;2.70;1.00;;;;;;;22.42;45.16;100486.93;107819;1256;61860;-73
2023/07/19 08:11:33;;;;;;;2.90;1.40;;;;;;;22.48;45.39;100485.73;107027;1256;61193;-73
2023/07/19 08:14:00;;;;;;;4.50;1.30;;;;;;;22.59;45.77;100489.17;106321;1256;74754;-73
2023/07/19 08:16:27;;;;;;;5.10;1.20;;;;;;;22.67;44.13;100490.45;106411;1261;69776;-74
2023/07/19 08:18:54;;;;;;;2.80;1.10;;;;;;;22.72;44.27;100493.53;106444;1256;72368;-75
2023/07/19 08:21:21;;;;;;;2.30;1.30;;;;;;;22.70;44.53;100495.57;106760;1257;61257;-74
2023/07/19 08:24:02;;;;;;;3.70;1.40;;;;;;;22.61;44.93;100496.96;106793;1257;60560;-75
2023/07/19 08:26:28;;;;;;;3.30;1.20;;;;;;;22.52;45.47;100493.27;106601;1256;73462;-75
2023/07/19 08:28:55;;;;;;;5.00;1.50;;;;;;;22.51;45.88;100493.82;106337;1257;71132;-74
2023/07/19 08:31:23;;;;;;;5.00;1.60;;;;;;;22.65;46.17;100496.17;106146;1259;71295;-72
2023/07/19 08:33:53;;;;;;;7.50;1.60;;;;;;;22.81;46.61;100496.33;106645;1256;61184;-73
2023/07/19 08:36:20;;;;;;;4.10;1.70;;;;;;;22.83;46.47;100494.77;106410;1257;61314;-73
2023/07/19 08:38:47;;;;;;;2.70;1.30;;;;;;;22.68;46.34;100503.77;106829;1256;73622;-73
2023/07/19 08:41:18;;;;;;;6.60;1.70;;;;;;;22.67;46.87;100498.08;107058;1256;70354;-72
2023/07/19 08:43:46;;;;;;;3.80;1.30;;;;;;;22.79;47.05;100494.27;106466;1256;72851;-74
2023/07/19 08:46:16;;;;;;;3.80;1.70;;;;;;;22.92;46.89;100492.19;106693;1256;61378;-72
2023/07/19 08:48:49;;;;;;;6.70;1.60;;;;;;;23.13;46.82;100493.41;107300;1256;60154;-75
2023/07/19 08:51:18;;;;;;;4.50;1.90;;;;;;;23.40;46.90;100494.05;107813;1256;73776;-74
2023/07/19 08:53:45;;;;;;;4.00;1.40;;;;;;;23.61;46.14;100492.66;108062;1256;71652;-76
2023/07/19 08:56:12;;;;;;;3.90;1.40;;;;;;;23.64;45.86;100489.09;108035;1257;72777;-76
2023/07/19 08:58:40;;;;;;;3.80;1.40;;;;;;;23.55;45.90;100487.66;108331;1256;61168;-74
2023/07/19 09:01:07;;;;;;;4.40;1.50;;;;;;;23.43;46.45;100490.20;107756;1261;59066;-75
2023/07/19 09:03:34;;;;;;;6.40;1.60;;;;;;;23.33;46.73;100490.23;107225;1257;73467;-73
2023/07/19 09:06:01;;;;;;;4.20;1.40;;;;;;;23.20;47.40;100489.70;106247;1256;69555;-73
2023/07/19 09:08:35;;;;;;;3.70;1.20;;;;;;;23.28;47.66;100489.84;106539;1256;73636;-73
2023/07/19 09:11:03;;;;;;;4.20;1.50;;;;;;;23.33;46.97;100494.77;106268;1258;61283;-72
2023/07/19 09:13:36;;;;;;;5.60;1.70;;;;;;;23.26;47.02;100491.07;106384;1256;61260;-74
2023/07/19 09:16:05;;;;;;;4.30;1.80;;;;;;;23.06;47.36;100491.36;106584;1256;74730;-76
2023/07/19 09:18:38;;;;;;;4.00;1.70;;;;;;;22.92;47.74;100494.13;106801;1257;71312;-74
2023/07/19 09:21:06;;;;;;;3.00;1.70;;;;;;;22.86;48.42;100486.52;106579;1256;72950;-73
2023/07/19 09:23:35;;;;;;;4.60;1.60;;;;;;;22.87;48.54;100487.61;106378;1256;61329;-73
2023/07/19 09:26:04;;;;;;;4.70;1.80;;;;;;;22.82;48.39;100488.60;106683;1259;61112;-75
2023/07/19 09:28:33;;;;;;;4.30;1.70;;;;;;;22.84;48.94;100478.71;106357;1262;74670;-74
2023/07/19 09:31:03;;;;;;;5.80;1.70;;;;;;;22.92;49.08;100476.71;106519;1256;70209;-73
2023/07/19 09:33:55;;;;;;;5.00;1.80;;;;;;;23.04;49.35;100476.20;106504;1256;73102;-74
2023/07/19 09:36:22;;;;;;;4.40;1.60;;;;;;;23.15;49.12;100478.42;106824;1261;61695;-73
2023/07/19 09:38:49;;;;;;;6.20;1.50;;;;;;;23.28;49.15;100478.58;106558;1256;61299;-76
2023/07/19 09:41:16;;;;;;;4.20;1.60;;;;;;;23.35;47.75;100478.23;106291;1259;73838;-73
2023/07/19 09:43:46;;;;;;;4.30;1.50;;;;;;;23.34;47.34;100478.27;106436;1256;71267;-74
2023/07/19 09:46:13;;;;;;;3.70;1.70;;;;;;;23.42;46.90;100474.63;106696;1256;72437;-76
2023/07/19 09:48:40;;;;;;;7.50;1.80;;;;;;;23.46;47.18;100472.95;106482;1256;61261;-73
2023/07/19 09:51:07;;;;;;;4.80;1.80;;;;;;;23.50;47.46;100474.80;106037;1263;61251;-74
2023/07/19 09:53:37;;;;;;;5.20;1.80;;;;;;;23.55;47.16;100473.30;106759;1256;73723;-75
2023/07/19 09:56:05;;;;;;;8.70;2.20;;;;;;;23.67;47.10;100468.56;106381;1256;71804;-74
2023/07/19 09:58:33;;;;;;;4.20;1.70;;;;;;;23.87;47.43;100456.27;106272;1262;71222;-74
2023/07/19 10:00:59;;;;;;;4.20;1.60;;;;;;;24.08;46.82;100463.55;106285;1259;61272;-74
2023/07/19 10:03:26;;;;;;;6.40;1.50;;;;;;;24.08;45.87;100467.55;106336;1256;61779;-74
2023/07/19 10:05:57;;;;;;;4.70;1.60;;;;;;;24.02;45.90;100461.27;106566;1257;74751;-74
2023/07/19 10:08:24;;;;;;;3.80;1.60;;;;;;;24.00;45.96;100462.19;106500;1259;69968;-74
2023/07/19 10:10:59;;;;;;;3.80;1.30;;;;;;;24.04;45.92;100458.46;106877;1256;71833;-74
2023/07/19 10:13:51;;;;;;;4.00;1.30;;;;;;;24.20;45.60;100457.00;106497;1255;62373;-76
2023/07/19 10:16:36;;;;;;;2.60;1.10;;;;;;;24.33;44.34;100464.41;106260;1256;61458;-73
2023/07/19 10:19:14;;;;;;;5.10;1.40;;;;;;;24.45;44.24;100455.58;106535;1256;73309;-77
2023/07/19 10:22:03;;;;;;;3.70;1.20;;;;;;;24.53;43.30;100463.77;106116;1256;70113;-74
2023/07/19 10:24:31;;;;;;;3.10;1.00;;;;;;;24.58;43.35;100453.58;106705;1258;71463;-76
2023/07/19 10:27:10;;;;;;;2.90;1.20;;;;;;;24.73;43.49;100453.91;106225;1256;61191;-76
2023/07/19 10:29:44;;;;;;;4.10;1.20;;;;;;;24.78;42.86;100455.95;106806;1256;61662;-74
2023/07/19 10:32:11;;;;;;;4.30;1.40;;;;;;;24.61;42.03;100462.17;106875;1259;73489;-77
2023/07/19 10:34:38;;;;;;;3.60;1.10;;;;;;;24.44;42.49;100468.52;106244;1257;70605;-73
2023/07/19 10:37:11;;;;;;;4.90;1.20;;;;;;;24.22;42.39;100466.59;106411;1262;72819;-75
2023/07/19 10:39:37;;;;;;;6.20;1.30;;;;;;;24.06;41.90;100462.63;106186;1256;61337;-74
2023/07/19 10:42:04;;;;;;;3.00;1.00;;;;;;;24.02;41.45;100460.84;106443;1256;61353;-75
2023/07/19 10:44:33;;;;;;;5.00;1.00;;;;;;;24.12;41.65;100457.81;107179;1256;73599;-74
2023/07/19 10:47:00;;;;;;;3.20;0.90;;;;;;;24.33;40.81;100458.02;106608;1256;72396;-73
2023/07/19 10:49:27;;;;;;;2.60;1.00;;;;;;;24.36;40.53;100460.77;106597;1256;73253;-74
2023/07/19 10:51:56;;;;;;;4.70;0.90;;;;;;;24.56;40.86;100451.02;106356;1257;61362;-79
2023/07/19 10:54:23;;;;;;;3.30;1.10;;;;;;;24.75;40.31;100450.81;106469;1256;61253;-74
2023/07/19 10:56:51;;;;;;;3.10;1.00;;;;;;;24.88;39.62;100454.14;106440;1257;75270;-78
2023/07/19 10:59:18;;;;;;;3.20;0.90;;;;;;;24.93;39.53;100456.61;106536;1257;69821;-73
2023/07/19 11:01:50;;;;;;;3.60;1.10;;;;;;;24.98;39.91;100455.67;106417;1256;73044;-73
2023/07/19 11:04:20;;;;;;;3.10;1.00;;;;;;;24.96;40.17;100444.01;107112;1262;61275;-72
2023/07/19 11:06:59;;;;;;;3.50;1.20;;;;;;;24.89;40.29;100455.17;106372;1257;61083;-74
2023/07/19 11:09:29;;;;;;;2.70;1.00;;;;;;;24.82;40.53;100453.07;106777;1257;72896;-73
2023/07/19 11:11:56;;;;;;;3.70;1.30;;;;;;;24.79;40.83;100453.34;106635;1256;70016;-74
2023/07/19 11:14:45;;;;;;;2.40;1.10;;;;;;;24.84;41.35;100449.71;106445;1256;72857;-77
2023/07/19 11:17:24;;;;;;;3.30;1.00;;;;;;;24.94;41.50;100444.13;106450;1257;61305;-74
2023/07/19 11:19:52;;;;;;;3.10;1.00;;;;;;;25.12;40.97;100446.66;106387;1262;61673;-76